Star City, Canada
Current Conditions -  °F | °C
As of 10:00 AM on Friday 24 Oct 2014 (Local Time) from CYBU Reporting Station
Clear Clear  
Wind Chill: 37°   Ceiling: Unl
Heat Index: 45°   Visibility: 9mi
Dew Point: 36°   Wind: 20mph
Humidity: 71%   Direction: 270°W
Pressure: 29.56"   Gusts: 31mph
Location:  52.87°N, 104.33°W
Report Text: CYBU 241600Z AUTO 27017G27KT 9SM CLR 07/02 A2956 RMK SLP024
Loading
Personal Weather Stations






























Interactive Weather Map
Tropical Storm Tracking
New forecast layout! Learn more

10-Day Weather Forecast

Advertisements
Track Severe Weather on mobile